Time;durP1;ratioP1;P1;durP2;ratioP2;P2;SDS_P1;SDS_P2;PMS_P1;PMS_P2;Temp;Humidity;BMP_temperature;BMP_pressure;BME280_temperature;BME280_humidity;BME280_pressure;Samples;Min_cycle;Max_cycle;Signal;HPM_P1;HPM_P2
2021/12/22 00:00:28;;;;;;;19.85;11.98;;;;;;;;;;5025003;28;20208;-81
2021/12/22 00:02:55;;;;;;;19.08;13.15;;;;;;;;;;5022424;28;20229;-81
2021/12/22 00:05:30;;;;;;;17.02;10.88;;;-3.30;98.20;;;;;;5023707;28;20196;-81
2021/12/22 00:07:57;;;;;;;17.20;13.23;;;;;;;;;;5022670;28;20898;-81
2021/12/22 00:10:25;;;;;;;20.23;13.32;;;;;;;;;;5021059;28;20567;-81
2021/12/22 00:12:53;;;;;;;23.30;12.10;;;;;;;;;;5020128;28;20209;-81
2021/12/22 00:15:20;;;;;;;15.95;12.55;;;;;;;;;;5021272;28;20201;-81
2021/12/22 00:17:47;;;;;;;16.75;11.65;;;;;;;;;;5018576;28;20941;-81
2021/12/22 00:20:15;;;;;;;15.45;11.02;;;-3.50;98.10;;;;;;5021090;28;20563;-81
2021/12/22 00:22:44;;;;;;;21.42;11.82;;;;;;;;;;5023817;28;20299;-81
2021/12/22 00:25:12;;;;;;;19.08;13.25;;;;;;;;;;5020813;28;20251;-81
2021/12/22 00:27:39;;;;;;;13.82;11.32;;;;;;;;;;5021913;28;20274;-81
2021/12/22 00:30:07;;;;;;;15.63;11.55;;;;;;;;;;5021134;28;20221;-81
2021/12/22 00:32:36;;;;;;;13.93;11.73;;;;;;;;;;5021503;28;20196;-81
2021/12/22 00:35:04;;;;;;;21.15;13.98;;;-3.50;98.60;;;;;;5022728;28;20201;-81
2021/12/22 00:37:32;;;;;;;16.13;12.60;;;-3.70;98.70;;;;;;5017975;28;20209;-81
2021/12/22 00:40:06;;;;;;;15.43;12.43;;;-3.50;99.10;;;;;;5024861;28;20204;-81
2021/12/22 00:42:33;;;;;;;21.83;14.50;;;;;;;;;;5019557;28;20240;-81
2021/12/22 00:45:01;;;;;;;20.38;15.50;;;;;;;;;;5016471;28;20224;-81
2021/12/22 00:47:30;;;;;;;16.25;12.85;;;-3.70;98.80;;;;;;5020670;28;20205;-81
2021/12/22 00:49:59;;;;;;;20.88;14.57;;;-3.60;99.40;;;;;;5019539;28;20197;-81
2021/12/22 00:52:26;;;;;;;24.60;15.80;;;-3.60;99.30;;;;;;5021343;28;20206;-81
2021/12/22 00:54:54;;;;;;;16.77;13.20;;;;;;;;;;5024217;28;20236;-81
2021/12/22 00:57:23;;;;;;;18.55;14.60;;;-3.60;99.70;;;;;;5023867;28;20330;-81
2021/12/22 00:59:50;;;;;;;28.30;15.10;;;;;;;;;;5021980;28;20197;-81
2021/12/22 01:02:20;;;;;;;24.02;13.80;;;-3.80;99.40;;;;;;5023961;28;20282;-81
2021/12/22 01:04:47;;;;;;;25.58;13.30;;;;;;;;;;5022506;28;20210;-81
2021/12/22 01:07:15;;;;;;;20.80;15.25;;;;;;;;;;5021279;28;20200;-81
2021/12/22 01:09:42;;;;;;;19.38;11.88;;;;;;;;;;5021689;28;20197;-81
2021/12/22 01:12:10;;;;;;;18.58;13.35;;;-3.80;99.00;;;;;;5021734;28;20204;-81
2021/12/22 01:14:39;;;;;;;25.30;13.88;;;;;;;;;;5021925;28;21072;-81
2021/12/22 01:17:09;;;;;;;20.10;13.23;;;;;;;;;;5019638;28;20262;-80
2021/12/22 01:19:43;;;;;;;18.52;12.80;;;;;;;;;;5023477;28;20201;-81
2021/12/22 01:22:22;;;;;;;25.85;17.42;;;;;;;;;;5019478;28;20319;-81
2021/12/22 01:24:59;;;;;;;27.10;15.45;;;;;;;;;;5021618;28;20208;-81
2021/12/22 01:27:28;;;;;;;19.45;13.75;;;;;;;;;;5018356;28;20240;-81
2021/12/22 01:29:56;;;;;;;25.52;13.50;;;-3.60;99.20;;;;;;5026185;28;20580;-81
2021/12/22 01:32:24;;;;;;;18.83;12.88;;;;;;;;;;5019407;28;20205;-81
2021/12/22 01:34:52;;;;;;;18.75;12.65;;;;;;;;;;5021795;28;20537;-81
2021/12/22 01:37:22;;;;;;;17.52;12.63;;;;;;;;;;5021560;28;20591;-82
2021/12/22 01:39:49;;;;;;;21.98;15.10;;;;;;;;;;5022412;28;20211;-81
2021/12/22 01:42:16;;;;;;;21.77;12.13;;;;;;;;;;5018874;28;20228;-81
2021/12/22 01:45:01;;;;;;;21.00;11.73;;;-3.70;99.00;;;;;;5016317;28;20267;-81
2021/12/22 01:50:16;;;;;;;19.50;12.80;;;-3.90;98.40;;;;;;5019046;28;20714;-81
2021/12/22 01:52:43;;;;;;;16.75;11.93;;;;;;;;;;5021800;28;20925;-81
2021/12/22 01:55:24;;;;;;;20.38;12.90;;;-3.60;98.70;;;;;;5021124;28;20200;-81
2021/12/22 01:57:52;;;;;;;16.25;13.13;;;;;;;;;;5020755;28;20240;-81
2021/12/22 02:00:22;;;;;;;17.08;14.18;;;-3.60;98.40;;;;;;5019644;28;20663;-81
2021/12/22 02:02:52;;;;;;;20.20;13.82;;;-3.50;98.90;;;;;;5016439;28;20296;-81
2021/12/22 02:05:19;;;;;;;20.75;13.25;;;-3.50;98.70;;;;;;5023836;28;20201;-81
2021/12/22 02:07:48;;;;;;;17.48;12.00;;;;;;;;;;5021953;28;20256;-81
2021/12/22 02:10:35;;;;;;;15.50;12.40;;;;;;;;;;5022529;28;20209;-80
2021/12/22 02:13:04;;;;;;;21.05;13.80;;;-3.00;99.50;;;;;;5020255;28;20205;-81
2021/12/22 02:15:34;;;;;;;17.48;13.00;;;;;;;;;;5021734;28;20200;-80
2021/12/22 02:18:04;;;;;;;20.38;13.88;;;;;;;;;;5020574;28;20292;-80
2021/12/22 02:20:33;;;;;;;20.58;12.63;;;-3.60;99.50;;;;;;5022546;28;20254;-81
2021/12/22 02:23:01;;;;;;;17.38;13.52;;;-3.70;99.30;;;;;;5017434;28;20229;-81
2021/12/22 02:25:37;;;;;;;24.15;15.65;;;;;;;;;;5021273;28;20246;-80
2021/12/22 02:28:09;;;;;;;23.02;13.35;;;;;;;;;;5020826;28;20236;-80
2021/12/22 02:30:37;;;;;;;24.73;15.20;;;;;;;;;;5022543;28;20213;-80
2021/12/22 02:33:20;;;;;;;23.95;13.77;;;;;;;;;;5017175;28;20211;-81
2021/12/22 02:36:05;;;;;;;17.90;13.38;;;-3.90;99.90;;;;;;5025944;28;20201;-81
2021/12/22 02:38:34;;;;;;;18.98;13.07;;;-3.90;99.80;;;;;;5020925;28;20208;-81
2021/12/22 02:41:03;;;;;;;18.33;12.70;;;-4.00;99.00;;;;;;5025072;28;20220;-80
2021/12/22 02:43:33;;;;;;;24.13;16.27;;;;;;;;;;5023827;28;20320;-80
2021/12/22 02:46:00;;;;;;;22.35;15.27;;;;;;;;;;5017558;28;20205;-80
2021/12/22 02:48:32;;;;;;;20.20;12.80;;;-4.00;98.00;;;;;;5023586;28;20263;-81
2021/12/22 02:51:02;;;;;;;18.40;12.82;;;-4.10;99.60;;;;;;5022232;28;20277;-80
2021/12/22 02:53:38;;;;;;;18.70;12.75;;;-4.30;99.10;;;;;;5026260;28;20203;-80
2021/12/22 02:56:16;;;;;;;22.23;13.63;;;;;;;;;;5026432;28;20200;-80
2021/12/22 02:58:55;;;;;;;18.88;11.90;;;;;;;;;;5024607;28;20289;-80
2021/12/22 03:01:39;;;;;;;20.45;11.27;;;-4.10;98.40;;;;;;5026682;28;20717;-81
2021/12/22 03:04:12;;;;;;;17.42;10.52;;;-4.40;99.90;;;;;;5017237;28;20619;-80
2021/12/22 03:06:47;;;;;;;14.40;11.23;;;;;;;;;;5025129;28;20247;-80
2021/12/22 03:09:18;;;;;;;18.00;11.43;;;-4.10;99.90;;;;;;5024513;28;20215;-81
2021/12/22 03:11:46;;;;;;;15.43;13.02;;;-4.50;99.90;;;;;;5020813;28;20201;-80
2021/12/22 03:14:14;;;;;;;23.40;13.07;;;;;;;;;;5017775;28;20220;-80
2021/12/22 03:16:42;;;;;;;17.58;12.32;;;-4.40;99.90;;;;;;5024683;28;20229;-80
2021/12/22 03:19:09;;;;;;;19.35;12.73;;;;;;;;;;5022430;28;20205;-79
2021/12/22 03:21:37;;;;;;;16.73;11.70;;;;;;;;;;5024870;28;20215;-80
2021/12/22 03:24:06;;;;;;;23.27;12.70;;;;;;;;;;5023777;28;20228;-80
2021/12/22 03:26:33;;;;;;;17.30;11.18;;;;;;;;;;5022677;28;20205;-80
2021/12/22 03:29:00;;;;;;;17.15;12.82;;;;;;;;;;5020404;28;20202;-80
2021/12/22 03:31:27;;;;;;;14.90;12.10;;;;;;;;;;5025954;28;20536;-80
2021/12/22 03:33:55;;;;;;;17.70;12.20;;;;;;;;;;5026725;28;20262;-80
2021/12/22 03:36:23;;;;;;;15.52;11.63;;;;;;;;;;5018910;28;21006;-80
2021/12/22 03:38:51;;;;;;;20.17;14.23;;;;;;;;;;5021503;28;20233;-79
2021/12/22 03:41:19;;;;;;;18.52;13.30;;;-4.30;99.90;;;;;;5024407;28;20263;-79
2021/12/22 03:43:46;;;;;;;17.67;12.57;;;;;;;;;;5028357;28;20232;-80
2021/12/22 03:46:14;;;;;;;18.95;14.43;;;;;;;;;;5027574;28;20228;-80
2021/12/22 03:48:42;;;;;;;22.55;14.65;;;;;;;;;;5020761;28;20202;-80
2021/12/22 03:51:09;;;;;;;17.40;13.43;;;;;;;;;;5022153;28;20695;-80
2021/12/22 03:53:37;;;;;;;18.35;13.65;;;;;;;;;;5023621;28;20215;-80
2021/12/22 03:56:04;;;;;;;16.65;13.02;;;;;;;;;;5023147;28;20201;-80
2021/12/22 03:58:33;;;;;;;15.95;12.38;;;;;;;;;;5024123;28;20212;-80
2021/12/22 04:01:00;;;;;;;14.18;11.77;;;;;;;;;;5019401;28;20216;-80
2021/12/22 04:03:32;;;;;;;19.40;12.40;;;;;;;;;;5026196;28;20228;-80
2021/12/22 04:05:59;;;;;;;16.98;12.95;;;;;;;;;;5022862;28;20702;-80
2021/12/22 04:08:26;;;;;;;16.60;11.80;;;;;;;;;;5017788;28;20220;-80
2021/12/22 04:10:54;;;;;;;16.23;11.35;;;;;;;;;;5020960;28;20205;-79
2021/12/22 04:13:21;;;;;;;19.90;11.75;;;;;;;;;;5021527;28;20667;-80
2021/12/22 04:15:50;;;;;;;21.45;12.90;;;-4.50;98.60;;;;;;5022207;28;20620;-80
2021/12/22 04:18:18;;;;;;;20.52;13.15;;;-4.60;99.10;;;;;;5020017;28;20189;-80
2021/12/22 04:20:45;;;;;;;16.95;11.30;;;;;;;;;;5018917;28;20567;-80
2021/12/22 04:23:12;;;;;;;16.27;12.63;;;;;;;;;;5021439;28;20345;-80
2021/12/22 04:25:39;;;;;;;15.82;11.60;;;;;;;;;;5022088;28;20213;-80
2021/12/22 04:28:09;;;;;;;18.48;12.02;;;;;;;;;;5021537;28;20276;-80
2021/12/22 04:30:39;;;;;;;20.35;10.95;;;-4.30;99.50;;;;;;5023592;28;20200;-80
2021/12/22 04:33:08;;;;;;;17.05;12.60;;;;;;;;;;5020654;28;20246;-80
2021/12/22 04:35:35;;;;;;;22.92;11.98;;;;;;;;;;5010415;28;20578;-80
2021/12/22 04:38:03;;;;;;;16.70;11.05;;;;;;;;;;5020827;28;20212;-80
2021/12/22 04:40:30;;;;;;;13.75;12.13;;;;;;;;;;5025707;28;20207;-80
2021/12/22 04:42:57;;;;;;;15.68;12.02;;;;;;;;;;5020607;28;20232;-80
2021/12/22 04:45:24;;;;;;;15.57;11.35;;;;;;;;;;5023866;28;20573;-80
2021/12/22 04:47:52;;;;;;;15.65;12.43;;;;;;;;;;5020435;28;20209;-80
2021/12/22 04:50:22;;;;;;;19.60;13.23;;;;;;;;;;5021428;28;20205;-80
2021/12/22 04:52:54;;;;;;;18.38;11.23;;;;;;;;;;5019654;28;20216;-80
2021/12/22 04:55:22;;;;;;;18.70;13.13;;;-4.50;98.90;;;;;;5023663;28;20215;-80
2021/12/22 04:57:49;;;;;;;17.40;11.65;;;-4.50;99.90;;;;;;5022045;28;20232;-80
2021/12/22 05:00:17;;;;;;;16.55;11.05;;;;;;;;;;5021941;28;20621;-80
2021/12/22 05:02:45;;;;;;;24.17;12.75;;;;;;;;;;5018057;28;20232;-80
2021/12/22 05:05:13;;;;;;;21.33;13.05;;;;;;;;;;5019876;28;20267;-80
2021/12/22 05:07:42;;;;;;;28.33;13.50;;;-4.50;99.90;;;;;;5020935;28;20201;-80
2021/12/22 05:10:11;;;;;;;15.45;11.00;;;;;;;;;;5024093;28;20204;-80
2021/12/22 05:12:39;;;;;;;19.52;11.02;;;;;;;;;;5018642;28;20752;-80
2021/12/22 05:15:08;;;;;;;16.45;11.60;;;;;;;;;;5022567;28;20209;-80
2021/12/22 05:18:01;;;;;;;17.95;13.30;;;;;;;;;;5023110;28;20244;-80
2021/12/22 05:20:28;;;;;;;22.13;12.80;;;;;;;;;;5020540;28;20218;-80
2021/12/22 05:22:58;;;;;;;15.98;11.23;;;;;;;;;;5019472;28;20309;-80
2021/12/22 05:25:25;;;;;;;19.08;12.57;;;;;;;;;;5023674;28;20201;-80
2021/12/22 05:27:52;;;;;;;18.33;11.75;;;;;;;;;;5017869;28;20267;-80
2021/12/22 05:30:19;;;;;;;17.38;12.68;;;;;;;;;;5020391;28;20201;-80
2021/12/22 05:32:47;;;;;;;16.90;12.48;;;;;;;;;;5023267;28;20220;-80
2021/12/22 05:35:14;;;;;;;17.20;13.27;;;;;;;;;;5022589;28;20205;-80
2021/12/22 05:37:41;;;;;;;14.60;10.75;;;;;;;;;;5021752;28;20296;-80
2021/12/22 05:40:10;;;;;;;22.70;13.38;;;-4.60;99.90;;;;;;5022512;28;20689;-80
2021/12/22 05:42:37;;;;;;;20.98;14.52;;;;;;;;;;5019600;28;20208;-80
2021/12/22 05:45:05;;;;;;;16.58;11.20;;;-4.70;99.30;;;;;;5021540;28;20247;-80
2021/12/22 05:47:33;;;;;;;20.48;11.27;;;;;;;;;;5018854;28;20208;-80
2021/12/22 05:50:00;;;;;;;15.55;10.40;;;;;;;;;;5022768;28;20201;-80
2021/12/22 05:52:27;;;;;;;22.42;12.68;;;;;;;;;;5019979;28;20205;-80
2021/12/22 05:54:54;;;;;;;16.77;12.57;;;;;;;;;;5022251;28;20251;-80
2021/12/22 05:57:23;;;;;;;15.43;11.10;;;;;;;;;;5017445;28;20212;-80
2021/12/22 05:59:50;;;;;;;18.13;12.77;;;;;;;;;;5023125;28;20213;-81
2021/12/22 06:02:17;;;;;;;17.40;12.07;;;;;;;;;;5021566;28;20937;-80
2021/12/22 06:04:44;;;;;;;16.02;12.30;;;;;;;;;;5017921;28;21217;-81
2021/12/22 06:07:11;;;;;;;24.10;17.40;;;;;;;;;;5017194;28;20827;-81
2021/12/22 06:09:39;;;;;;;24.35;16.63;;;;;;;;;;5022055;28;20232;-82
2021/12/22 06:12:06;;;;;;;17.30;13.00;;;;;;;;;;5018724;28;20228;-81
2021/12/22 06:14:35;;;;;;;19.05;14.35;;;;;;;;;;5021815;28;21230;-81
2021/12/22 06:17:02;;;;;;;14.98;13.07;;;;;;;;;;5018356;28;20220;-82
2021/12/22 06:19:30;;;;;;;19.83;12.40;;;;;;;;;;5019180;28;20313;-82
2021/12/22 06:21:58;;;;;;;18.35;10.95;;;;;;;;;;5019009;28;20205;-81
2021/12/22 06:24:25;;;;;;;31.63;14.75;;;;;;;;;;5023654;28;20752;-81
2021/12/22 06:26:52;;;;;;;22.23;14.18;;;;;;;;;;5019278;28;20287;-81
2021/12/22 06:29:19;;;;;;;15.00;11.50;;;;;;;;;;5022073;28;21167;-81
2021/12/22 06:31:48;;;;;;;15.55;11.75;;;;;;;;;;5023470;28;20225;-81
2021/12/22 06:34:15;;;;;;;14.85;12.20;;;;;;;;;;5015859;28;20675;-81
2021/12/22 06:36:42;;;;;;;23.75;15.57;;;;;;;;;;5021502;28;20189;-81
2021/12/22 06:39:11;;;;;;;20.05;12.20;;;;;;;;;;5019419;28;20197;-81
2021/12/22 06:41:38;;;;;;;16.95;12.70;;;;;;;;;;5023610;28;20259;-81
2021/12/22 06:44:06;;;;;;;23.48;14.50;;;;;;;;;;5020018;28;20279;-81
2021/12/22 06:46:33;;;;;;;20.15;13.27;;;;;;;;;;5022801;28;20225;-81
2021/12/22 06:49:01;;;;;;;17.63;11.68;;;;;;;;;;5021019;28;20657;-81
2021/12/22 06:51:29;;;;;;;14.07;11.40;;;;;;;;;;5021615;28;20288;-81
2021/12/22 06:53:56;;;;;;;21.10;12.48;;;;;;;;;;5022851;28;20267;-81
2021/12/22 06:56:23;;;;;;;22.13;13.52;;;;;;;;;;5022774;28;20197;-81
2021/12/22 06:58:50;;;;;;;17.55;13.07;;;;;;;;;;5015956;28;20201;-82
2021/12/22 07:01:19;;;;;;;20.70;13.57;;;;;;;;;;5021020;28;20226;-82
2021/12/22 07:03:47;;;;;;;22.05;14.50;;;;;;;;;;5017668;28;20304;-82
2021/12/22 07:06:15;;;;;;;24.50;13.80;;;-4.60;97.30;;;;;;5014730;28;20305;-82
2021/12/22 07:08:43;;;;;;;21.25;13.45;;;;;;;;;;5018126;28;20312;-82
2021/12/22 07:11:10;;;;;;;16.65;12.10;;;;;;;;;;5022700;28;20287;-83
2021/12/22 07:13:38;;;;;;;20.30;13.02;;;;;;;;;;5024373;28;20204;-82
2021/12/22 07:16:05;;;;;;;19.88;12.43;;;;;;;;;;5022788;28;20283;-82
2021/12/22 07:18:34;;;;;;;21.25;13.60;;;;;;;;;;5024230;28;20262;-82
2021/12/22 07:21:03;;;;;;;21.63;12.50;;;-4.80;98.60;;;;;;5026205;28;20192;-82
2021/12/22 07:23:31;;;;;;;21.77;13.38;;;-4.60;99.60;;;;;;5029668;28;20204;-82
2021/12/22 07:25:58;;;;;;;15.35;11.93;;;;;;;;;;5023606;28;20185;-82
2021/12/22 07:28:26;;;;;;;18.50;12.50;;;;;;;;;;5029312;28;20932;-82
2021/12/22 07:30:53;;;;;;;20.38;14.75;;;;;;;;;;5029054;28;20224;-83
2021/12/22 07:33:20;;;;;;;19.25;11.50;;;;;;;;;;5029307;28;20205;-83
2021/12/22 07:35:57;;;;;;;21.27;14.55;;;-4.80;99.90;;;;;;5027610;28;20212;-82
2021/12/22 07:38:32;;;;;;;16.63;13.10;;;;;;;;;;5029247;28;20283;-82
2021/12/22 07:41:03;;;;;;;21.27;13.10;;;-4.90;99.90;;;;;;5024173;28;20222;-82
2021/12/22 07:43:31;;;;;;;19.77;11.10;;;;;;;;;;5023794;28;20791;-82
2021/12/22 07:46:01;;;;;;;15.75;11.95;;;;;;;;;;5028373;28;20208;-82
2021/12/22 07:48:28;;;;;;;18.00;12.80;;;;;;;;;;5028272;28;20205;-82
2021/12/22 07:50:56;;;;;;;21.83;13.70;;;;;;;;;;5027201;28;20655;-83
2021/12/22 07:53:23;;;;;;;21.08;12.73;;;;;;;;;;5026375;28;20208;-82
2021/12/22 07:55:53;;;;;;;36.42;15.90;;;-4.60;99.00;;;;;;5026158;28;20208;-82
2021/12/22 07:58:23;;;;;;;17.75;12.15;;;-4.60;99.90;;;;;;5025919;28;20221;-82
2021/12/22 08:00:52;;;;;;;20.67;13.85;;;-4.50;97.50;;;;;;5026540;28;20211;-82
2021/12/22 08:03:19;;;;;;;18.42;13.30;;;;;;;;;;5019221;28;20224;-82
2021/12/22 08:05:46;;;;;;;13.73;10.57;;;;;;;;;;5024799;28;20224;-82
2021/12/22 08:08:14;;;;;;;24.67;14.48;;;;;;;;;;5027062;28;20614;-82
2021/12/22 08:10:42;;;;;;;22.38;14.18;;;;;;;;;;5027533;28;20197;-82
2021/12/22 08:13:09;;;;;;;22.58;14.75;;;;;;;;;;5029534;28;20297;-82
2021/12/22 08:15:40;;;;;;;17.52;11.75;;;;;;;;;;5021383;28;20256;-82
2021/12/22 08:18:07;;;;;;;32.15;13.27;;;;;;;;;;5021390;28;20616;-82
2021/12/22 08:20:35;;;;;;;23.63;15.52;;;;;;;;;;5024804;28;20689;-83
2021/12/22 08:23:02;;;;;;;20.45;14.30;;;;;;;;;;5021843;28;20216;-83
2021/12/22 08:25:29;;;;;;;18.63;13.90;;;;;;;;;;5022733;28;20647;-83
2021/12/22 08:27:57;;;;;;;27.63;14.75;;;;;;;;;;5021661;28;20257;-83
2021/12/22 08:30:24;;;;;;;22.50;14.55;;;;;;;;;;5024406;28;20216;-84
2021/12/22 08:32:52;;;;;;;21.98;13.60;;;;;;;;;;5017818;28;20234;-85
2021/12/22 08:35:24;;;;;;;16.02;11.40;;;;;;;;;;5024862;28;20200;-85
2021/12/22 08:40:50;;;;;;;18.10;12.35;;;;;;;;;;5000976;28;20291;-85
2021/12/22 08:43:18;;;;;;;26.77;15.77;;;;;;;;;;5002160;28;20210;-85
2021/12/22 08:45:45;;;;;;;25.98;15.80;;;;;;;;;;5007729;28;20328;-85
2021/12/22 08:48:14;;;;;;;26.02;13.27;;;;;;;;;;5023079;28;20203;-85
2021/12/22 08:50:41;;;;;;;25.63;14.77;;;;;;;;;;5021427;28;20535;-85
2021/12/22 08:53:08;;;;;;;20.67;13.15;;;;;;;;;;5023089;28;20893;-86
2021/12/22 08:55:36;;;;;;;20.73;13.35;;;;;;;;;;5020449;28;20200;-86
2021/12/22 08:58:03;;;;;;;14.70;12.05;;;;;;;;;;5016222;28;20234;-84
2021/12/22 09:00:33;;;;;;;18.23;12.73;;;;;;;;;;5016499;28;20964;-85
2021/12/22 09:03:00;;;;;;;23.10;12.18;;;;;;;;;;5022526;28;20706;-85
2021/12/22 09:05:29;;;;;;;19.80;12.30;;;;;;;;;;5020443;28;20552;-85
2021/12/22 09:07:56;;;;;;;21.45;14.30;;;;;;;;;;5021169;28;20200;-84
2021/12/22 09:10:23;;;;;;;18.55;11.88;;;;;;;;;;5020148;28;20201;-84
2021/12/22 09:12:51;;;;;;;22.73;10.98;;;;;;;;;;5022941;28;20231;-84
2021/12/22 09:15:19;;;;;;;22.20;12.40;;;;;;;;;;5021101;28;20292;-84
2021/12/22 09:17:46;;;;;;;18.52;11.50;;;;;;;;;;5019843;28;20896;-84
2021/12/22 09:20:14;;;;;;;18.45;12.65;;;;;;;;;;5024433;28;20193;-83
2021/12/22 09:22:52;;;;;;;19.45;11.52;;;;;;;;;;5018772;28;20743;-82
2021/12/22 09:25:20;;;;;;;17.02;11.57;;;;;;;;;;5023328;28;20228;-83
2021/12/22 09:27:47;;;;;;;20.50;11.43;;;;;;;;;;5019975;28;20208;-83
2021/12/22 09:30:14;;;;;;;19.65;11.95;;;;;;;;;;5019192;28;20213;-83
2021/12/22 09:32:41;;;;;;;24.00;13.43;;;;;;;;;;5020163;28;20208;-82
2021/12/22 09:35:09;;;;;;;23.83;13.68;;;;;;;;;;5023397;28;20196;-82
2021/12/22 09:37:36;;;;;;;16.25;9.20;;;;;;;;;;5019468;28;20258;-82
2021/12/22 09:40:06;;;;;;;17.55;13.40;;;-1.80;99.60;;;;;;5020152;28;20267;-83
2021/12/22 09:42:33;;;;;;;22.42;13.52;;;;;;;;;;5019102;28;20225;-83
2021/12/22 09:45:02;;;;;;;19.60;12.75;;;;;;;;;;5019372;28;20236;-82
2021/12/22 09:47:38;;;;;;;20.95;12.57;;;-1.50;99.90;;;;;;5018625;28;20205;-82
2021/12/22 09:50:11;;;;;;;23.27;12.68;;;;;;;;;;5017575;28;20629;-83
2021/12/22 09:52:39;;;;;;;19.75;11.07;;;;;;;;;;5020229;28;20212;-82
2021/12/22 09:55:10;;;;;;;21.52;11.95;;;-2.00;99.90;;;;;;5015336;28;20568;-83
2021/12/22 09:57:38;;;;;;;16.02;11.23;;;;;;;;;;5021183;28;20215;-84
2021/12/22 10:00:07;;;;;;;17.25;10.02;;;-1.40;97.90;;;;;;5018898;28;20208;-83
2021/12/22 10:02:34;;;;;;;13.07;9.50;;;;;;;;;;5021154;28;20702;-83
2021/12/22 10:05:03;;;;;;;16.13;10.00;;;-1.40;99.90;;;;;;5021680;28;20241;-83
2021/12/22 10:07:36;;;;;;;21.20;13.25;;;;;;;;;;5024583;28;20211;-82
2021/12/22 10:10:10;;;;;;;20.13;12.82;;;-1.50;99.90;;;;;;5024300;28;20207;-83
2021/12/22 10:12:38;;;;;;;18.70;14.68;;;;;;;;;;5023961;28;20585;-83
2021/12/22 10:15:08;;;;;;;14.40;10.80;;;-1.50;98.80;;;;;;5025547;28;20308;-83
2021/12/22 10:17:39;;;;;;;19.90;11.00;;;-1.70;98.40;;;;;;5025404;28;20212;-83
2021/12/22 10:20:11;;;;;;;21.23;13.45;;;-1.30;99.20;;;;;;5021038;28;20288;-83
2021/12/22 10:22:41;;;;;;;18.95;11.90;;;-1.30;99.40;;;;;;5019398;28;20232;-81
2021/12/22 10:25:13;;;;;;;18.90;13.45;;;-1.30;99.90;;;;;;5020789;28;20240;-82
2021/12/22 10:27:42;;;;;;;26.80;14.00;;;-1.20;99.90;;;;;;5020092;28;20215;-82
2021/12/22 10:30:25;;;;;;;18.70;12.43;;;-1.10;99.90;;;;;;5022454;28;20228;-82
2021/12/22 10:33:04;;;;;;;19.20;11.88;;;;;;;;;;5020071;28;20205;-82
2021/12/22 10:35:33;;;;;;;15.63;8.60;;;-1.00;99.90;;;;;;5018180;28;20200;-82
2021/12/22 10:38:01;;;;;;;17.20;10.43;;;-1.10;99.90;;;;;;5017795;28;20612;-82
2021/12/22 10:40:32;;;;;;;15.68;10.60;;;-1.00;99.90;;;;;;5022612;28;21012;-82
2021/12/22 10:43:00;;;;;;;18.25;10.90;;;-1.10;99.90;;;;;;5022936;28;20212;-82
2021/12/22 10:45:29;;;;;;;19.50;10.82;;;-1.00;99.90;;;;;;5023019;28;20220;-82
2021/12/22 10:50:46;;;;;;;16.90;10.40;;;-0.80;98.80;;;;;;5001706;28;20357;-82
2021/12/22 10:53:15;;;;;;;21.35;12.43;;;-0.80;99.90;;;;;;5019657;28;20204;-82
2021/12/22 10:55:46;;;;;;;18.23;11.98;;;-0.70;99.90;;;;;;5028351;28;20200;-82
2021/12/22 10:58:19;;;;;;;20.02;12.30;;;-0.90;97.90;;;;;;5019122;28;20218;-82
2021/12/22 11:00:46;;;;;;;26.02;13.73;;;;;;;;;;5021208;28;20754;-82
2021/12/22 11:03:15;;;;;;;17.73;11.50;;;;;;;;;;5023685;28;20680;-82
2021/12/22 11:05:47;;;;;;;21.40;12.32;;;;;;;;;;5026672;28;20236;-82
2021/12/22 11:08:23;;;;;;;20.65;11.80;;;-0.60;98.80;;;;;;5022113;28;20280;-82
2021/12/22 11:10:52;;;;;;;18.25;11.23;;;;;;;;;;5025826;28;20723;-82
2021/12/22 11:13:21;;;;;;;16.08;12.38;;;-0.40;99.90;;;;;;5023106;28;20274;-82
2021/12/22 11:15:48;;;;;;;19.60;11.93;;;;;;;;;;5023676;28;20213;-83
2021/12/22 11:18:26;;;;;;;24.50;13.90;;;-0.30;99.90;;;;;;5023312;28;20577;-82
2021/12/22 11:21:11;;;;;;;23.77;11.45;;;;;;;;;;5021849;28;20228;-82
2021/12/22 11:23:38;;;;;;;20.95;11.52;;;;;;;;;;5023872;28;20219;-81
2021/12/22 11:26:07;;;;;;;20.17;11.60;;;-0.40;97.90;;;;;;5022297;28;20233;-82
2021/12/22 11:28:35;;;;;;;18.75;12.70;;;-0.40;98.10;;;;;;5022576;28;20205;-81
2021/12/22 11:31:04;;;;;;;16.08;11.82;;;-0.30;98.60;;;;;;5026401;28;20205;-82
2021/12/22 11:33:32;;;;;;;15.75;10.75;;;-0.30;95.30;;;;;;5023320;28;20205;-82
2021/12/22 11:35:59;;;;;;;20.65;10.43;;;;;;;;;;5021790;28;20250;-81
2021/12/22 11:38:28;;;;;;;16.27;12.57;;;;;;;;;;5030103;28;20607;-81
2021/12/22 11:41:06;;;;;;;25.40;14.00;;;;;;;;;;5025930;28;20861;-82
2021/12/22 11:43:36;;;;;;;19.92;13.00;;;-0.40;98.90;;;;;;5023599;28;20638;-82
2021/12/22 11:46:04;;;;;;;18.77;11.85;;;0.10;97.80;;;;;;5022832;28;20225;-82
2021/12/22 11:48:32;;;;;;;20.05;12.52;;;;;;;;;;5018433;28;20225;-82
2021/12/22 11:50:59;;;;;;;18.65;10.95;;;;;;;;;;5025298;28;20208;-82
2021/12/22 11:53:27;;;;;;;19.27;13.07;;;;;;;;;;5018836;28;20213;-82
2021/12/22 11:55:56;;;;;;;17.10;11.55;;;-0.10;98.40;;;;;;5024736;28;20215;-81
2021/12/22 11:58:24;;;;;;;21.90;13.05;;;0.10;99.20;;;;;;5024396;28;20232;-82
2021/12/22 12:01:08;;;;;;;18.65;12.68;;;-0.10;99.30;;;;;;5020621;28;20658;-82
2021/12/22 12:03:37;;;;;;;19.58;13.18;;;-0.20;98.60;;;;;;5019820;28;20816;-81
2021/12/22 12:06:09;;;;;;;21.55;12.15;;;;;;;;;;5021287;28;20331;-82
2021/12/22 12:08:39;;;;;;;22.08;11.90;;;-0.20;98.60;;;;;;5022581;28;20258;-82
2021/12/22 12:11:07;;;;;;;15.50;11.48;;;-0.20;97.60;;;;;;5025331;28;20192;-81
2021/12/22 12:13:39;;;;;;;17.30;11.80;;;0.20;98.80;;;;;;5024248;28;20236;-82
2021/12/22 12:22:07;;;;;;;22.08;13.77;;;0.30;95.60;;;;;;5021355;28;20205;-81
2021/12/22 12:24:46;;;;;;;20.27;12.20;;;0.20;97.80;;;;;;5020223;28;20291;-81
2021/12/22 12:27:34;;;;;;;24.70;13.50;;;0.20;95.40;;;;;;5009517;28;20225;-82
2021/12/22 12:30:03;;;;;;;15.25;10.70;;;0.30;98.60;;;;;;5018129;28;20196;-81
2021/12/22 12:33:11;;;;;;;18.77;12.57;;;0.30;95.30;;;;;;5019591;28;20647;-81
2021/12/22 12:35:58;;;;;;;22.65;12.50;;;0.20;98.60;;;;;;4962392;28;20714;-82
2021/12/22 12:38:27;;;;;;;21.10;12.73;;;;;;;;;;5007633;28;20217;-81
2021/12/22 12:41:14;;;;;;;21.08;11.80;;;0.40;96.70;;;;;;5021551;28;20197;-81
2021/12/22 12:44:01;;;;;;;15.77;10.82;;;0.50;98.90;;;;;;5018538;28;20287;-81
2021/12/22 12:46:34;;;;;;;21.08;11.00;;;;;;;;;;5009295;28;20284;-82
2021/12/22 12:49:42;;;;;;;19.90;13.32;;;0.40;97.40;;;;;;5021524;28;20251;-82
2021/12/22 12:52:20;;;;;;;16.15;11.90;;;0.30;97.80;;;;;;5009650;28;20209;-81
2021/12/22 12:54:49;;;;;;;20.90;12.27;;;0.40;99.10;;;;;;5019529;28;20291;-81
2021/12/22 12:57:28;;;;;;;18.08;12.27;;;0.60;91.80;;;;;;5020743;28;20831;-82
2021/12/22 13:00:03;;;;;;;18.52;11.95;;;0.50;97.00;;;;;;5024992;28;20300;-82
2021/12/22 13:02:32;;;;;;;17.23;12.02;;;0.40;92.80;;;;;;5020419;28;20201;-82
2021/12/22 13:05:03;;;;;;;17.50;12.00;;;;;;;;;;5019623;28;20280;-82
2021/12/22 13:07:31;;;;;;;19.08;12.48;;;0.50;92.90;;;;;;5019324;28;20322;-82
2021/12/22 13:10:02;;;;;;;17.13;12.35;;;0.60;98.10;;;;;;5021048;28;20204;-82
2021/12/22 13:12:47;;;;;;;22.55;12.25;;;;;;;;;;5023906;28;20572;-82
2021/12/22 13:18:05;;;;;;;15.75;11.70;;;0.30;93.70;;;;;;5018725;28;20771;-81
2021/12/22 13:20:36;;;;;;;21.95;11.20;;;;;;;;;;5020926;28;20203;-82
2021/12/22 13:23:05;;;;;;;18.98;12.52;;;0.30;93.40;;;;;;5021288;28;20209;-82
2021/12/22 13:25:34;;;;;;;22.77;13.60;;;0.10;93.80;;;;;;5023725;28;20235;-82
2021/12/22 13:28:05;;;;;;;19.20;12.95;;;0.50;94.20;;;;;;5017061;28;20220;-82
2021/12/22 13:30:34;;;;;;;19.88;11.90;;;;;;;;;;5024074;28;20287;-81
2021/12/22 13:33:04;;;;;;;18.35;11.80;;;0.40;94.20;;;;;;5018635;28;20208;-81
2021/12/22 13:35:36;;;;;;;20.83;13.90;;;0.50;93.10;;;;;;5021775;28;20251;-81
2021/12/22 13:38:06;;;;;;;18.75;13.13;;;-1.60;93.50;;;;;;5016588;28;20204;-81
2021/12/22 13:40:43;;;;;;;15.85;12.23;;;0.40;92.60;;;;;;5016282;28;20209;-82
2021/12/22 13:43:18;;;;;;;25.95;13.93;;;;;;;;;;5015175;28;20208;-81
2021/12/22 13:45:45;;;;;;;19.80;11.88;;;;;;;;;;5021423;28;20224;-81
2021/12/22 13:48:17;;;;;;;24.85;13.88;;;;;;;;;;5018933;28;20238;-81
2021/12/22 13:50:47;;;;;;;22.77;13.07;;;0.80;93.60;;;;;;5020401;28;20205;-82
2021/12/22 13:53:17;;;;;;;18.33;11.38;;;0.50;92.80;;;;;;5019950;28;20201;-81
2021/12/22 13:55:44;;;;;;;19.63;12.90;;;;;;;;;;5020940;28;20196;-81
2021/12/22 13:58:34;;;;;;;19.17;12.80;;;0.90;92.00;;;;;;5019831;28;20205;-82
2021/12/22 14:01:11;;;;;;;23.98;15.30;;;;;;;;;;5023537;28;20724;-81
2021/12/22 14:03:38;;;;;;;17.27;11.52;;;;;;;;;;5017589;28;20216;-82
2021/12/22 14:06:07;;;;;;;20.00;12.73;;;1.30;92.20;;;;;;5020661;28;20229;-81
2021/12/22 14:08:34;;;;;;;18.15;13.18;;;;;;;;;;5018886;28;20697;-81